sensor_id;sensor_type;location;lat;lon;timestamp;pressure;altitude;pressure_sealevel;temperature;humidity
74975;BME280;68459;50.836;19.138;2023-09-07T00:02:07;99507.94;;;13.85;66.88
74975;BME280;68459;50.836;19.138;2023-09-07T00:05:13;99514.28;;;13.79;67.15
74975;BME280;68459;50.836;19.138;2023-09-07T00:08:19;99511.78;;;13.77;67.21
74975;BME280;68459;50.836;19.138;2023-09-07T00:11:23;99518.03;;;13.78;66.93
74975;BME280;68459;50.836;19.138;2023-09-07T00:14:27;99510.34;;;13.75;67.46
74975;BME280;68459;50.836;19.138;2023-09-07T00:17:31;99515.16;;;13.73;67.47
74975;BME280;68459;50.836;19.138;2023-09-07T00:20:34;99514.59;;;13.71;67.34
74975;BME280;68459;50.836;19.138;2023-09-07T00:23:40;99518.34;;;13.70;67.44
74975;BME280;68459;50.836;19.138;2023-09-07T00:26:45;99523.38;;;13.66;67.75
74975;BME280;68459;50.836;19.138;2023-09-07T00:29:49;99515.28;;;13.60;67.39
74975;BME280;68459;50.836;19.138;2023-09-07T00:32:53;99518.91;;;13.53;67.92
74975;BME280;68459;50.836;19.138;2023-09-07T00:35:57;99529.13;;;13.51;68.13
74975;BME280;68459;50.836;19.138;2023-09-07T00:39:03;99523.72;;;13.51;68.18
74975;BME280;68459;50.836;19.138;2023-09-07T00:42:07;99531.22;;;13.49;68.11
74975;BME280;68459;50.836;19.138;2023-09-07T00:45:11;99532.28;;;13.48;68.03
74975;BME280;68459;50.836;19.138;2023-09-07T00:48:16;99527.28;;;13.45;67.83
74975;BME280;68459;50.836;19.138;2023-09-07T00:51:20;99524.44;;;13.40;68.47
74975;BME280;68459;50.836;19.138;2023-09-07T00:54:26;99523.81;;;13.38;68.92
74975;BME280;68459;50.836;19.138;2023-09-07T00:57:29;99529.84;;;13.40;68.46
74975;BME280;68459;50.836;19.138;2023-09-07T01:00:34;99535.91;;;13.36;68.46
74975;BME280;68459;50.836;19.138;2023-09-07T01:03:38;99530.56;;;13.29;68.51
74975;BME280;68459;50.836;19.138;2023-09-07T01:06:45;99521.63;;;13.22;68.91
74975;BME280;68459;50.836;19.138;2023-09-07T01:09:56;99524.59;;;13.14;69.39
74975;BME280;68459;50.836;19.138;2023-09-07T01:13:02;99520.03;;;13.08;68.49
74975;BME280;68459;50.836;19.138;2023-09-07T01:16:06;99530.72;;;13.03;68.86
74975;BME280;68459;50.836;19.138;2023-09-07T01:19:11;99529.47;;;12.99;69.27
74975;BME280;68459;50.836;19.138;2023-09-07T01:22:16;99526.75;;;12.99;69.48
74975;BME280;68459;50.836;19.138;2023-09-07T01:25:21;99526.16;;;12.97;68.65
74975;BME280;68459;50.836;19.138;2023-09-07T01:28:24;99532.81;;;12.94;69.35
74975;BME280;68459;50.836;19.138;2023-09-07T01:31:29;99527.03;;;12.91;69.08
74975;BME280;68459;50.836;19.138;2023-09-07T01:34:33;99531.84;;;12.89;68.83
74975;BME280;68459;50.836;19.138;2023-09-07T01:37:38;99526.66;;;12.80;69.18
74975;BME280;68459;50.836;19.138;2023-09-07T01:40:42;99531.69;;;12.77;69.39
74975;BME280;68459;50.836;19.138;2023-09-07T01:43:46;99537.53;;;12.74;69.24
74975;BME280;68459;50.836;19.138;2023-09-07T01:46:51;99527.75;;;12.73;69.19
74975;BME280;68459;50.836;19.138;2023-09-07T01:49:56;99526.31;;;12.70;69.69
74975;BME280;68459;50.836;19.138;2023-09-07T01:53:00;99520.25;;;12.68;69.92
74975;BME280;68459;50.836;19.138;2023-09-07T01:56:07;99528.78;;;12.72;70.00
74975;BME280;68459;50.836;19.138;2023-09-07T01:59:10;99520.25;;;12.68;69.47
74975;BME280;68459;50.836;19.138;2023-09-07T02:02:15;99531.91;;;12.69;69.92
74975;BME280;68459;50.836;19.138;2023-09-07T02:05:19;99524.47;;;12.64;69.73
74975;BME280;68459;50.836;19.138;2023-09-07T02:08:25;99522.19;;;12.61;69.57
74975;BME280;68459;50.836;19.138;2023-09-07T02:11:29;99521.78;;;12.58;69.79
74975;BME280;68459;50.836;19.138;2023-09-07T02:14:33;99513.25;;;12.54;69.88
74975;BME280;68459;50.836;19.138;2023-09-07T02:17:37;99517.00;;;12.53;69.84
74975;BME280;68459;50.836;19.138;2023-09-07T02:20:42;99513.47;;;12.53;69.74
74975;BME280;68459;50.836;19.138;2023-09-07T02:23:47;99515.97;;;12.54;70.14
74975;BME280;68459;50.836;19.138;2023-09-07T02:26:52;99517.63;;;12.55;70.12
74975;BME280;68459;50.836;19.138;2023-09-07T02:29:55;99522.00;;;12.56;70.25
74975;BME280;68459;50.836;19.138;2023-09-07T02:33:00;99520.31;;;12.55;70.36
74975;BME280;68459;50.836;19.138;2023-09-07T02:36:04;99517.47;;;12.50;70.51
74975;BME280;68459;50.836;19.138;2023-09-07T02:39:09;99519.13;;;12.44;70.14
74975;BME280;68459;50.836;19.138;2023-09-07T02:42:14;99508.94;;;12.40;70.64
74975;BME280;68459;50.836;19.138;2023-09-07T02:45:18;99510.84;;;12.33;70.05
74975;BME280;68459;50.836;19.138;2023-09-07T02:48:21;99512.31;;;12.29;70.17
74975;BME280;68459;50.836;19.138;2023-09-07T02:51:26;99517.31;;;12.25;70.18
74975;BME280;68459;50.836;19.138;2023-09-07T02:54:32;99517.56;;;12.24;70.61
74975;BME280;68459;50.836;19.138;2023-09-07T02:57:37;99519.44;;;12.23;70.60
74975;BME280;68459;50.836;19.138;2023-09-07T03:00:42;99523.81;;;12.24;71.29
74975;BME280;68459;50.836;19.138;2023-09-07T03:03:48;99509.19;;;12.25;70.90
74975;BME280;68459;50.836;19.138;2023-09-07T03:06:52;99518.16;;;12.26;71.33
74975;BME280;68459;50.836;19.138;2023-09-07T03:09:58;99511.53;;;12.22;71.33
74975;BME280;68459;50.836;19.138;2023-09-07T03:13:02;99500.09;;;12.20;71.47
74975;BME280;68459;50.836;19.138;2023-09-07T03:16:07;99503.22;;;12.17;71.34
74975;BME280;68459;50.836;19.138;2023-09-07T03:19:11;99509.66;;;12.16;71.36
74975;BME280;68459;50.836;19.138;2023-09-07T03:22:15;99506.13;;;12.15;71.07
74975;BME280;68459;50.836;19.138;2023-09-07T03:25:20;99513.41;;;12.14;71.54
74975;BME280;68459;50.836;19.138;2023-09-07T03:28:25;99511.31;;;12.17;71.09
74975;BME280;68459;50.836;19.138;2023-09-07T03:31:29;99513.19;;;12.16;71.34
74975;BME280;68459;50.836;19.138;2023-09-07T03:34:33;99514.44;;;12.13;71.40
74975;BME280;68459;50.836;19.138;2023-09-07T03:37:37;99515.09;;;12.09;71.46
74975;BME280;68459;50.836;19.138;2023-09-07T03:40:42;99523.63;;;11.99;71.41
74975;BME280;68459;50.836;19.138;2023-09-07T03:43:47;99521.41;;;11.83;71.27
74975;BME280;68459;50.836;19.138;2023-09-07T03:46:51;99526.97;;;11.75;71.95
74975;BME280;68459;50.836;19.138;2023-09-07T03:49:54;99527.81;;;11.69;71.87
74975;BME280;68459;50.836;19.138;2023-09-07T03:52:59;99528.44;;;11.64;71.96
74975;BME280;68459;50.836;19.138;2023-09-07T03:56:04;99526.97;;;11.62;71.50
74975;BME280;68459;50.836;19.138;2023-09-07T03:59:08;99525.94;;;11.63;71.91
74975;BME280;68459;50.836;19.138;2023-09-07T04:02:13;99526.97;;;11.62;71.21
74975;BME280;68459;50.836;19.138;2023-09-07T04:05:17;99533.22;;;11.62;72.14
74975;BME280;68459;50.836;19.138;2023-09-07T04:08:20;99539.88;;;11.60;72.64
74975;BME280;68459;50.836;19.138;2023-09-07T04:11:26;99543.59;;;11.59;71.90
74975;BME280;68459;50.836;19.138;2023-09-07T04:14:30;99544.84;;;11.63;71.70
74975;BME280;68459;50.836;19.138;2023-09-07T04:17:34;99544.25;;;11.67;72.05
74975;BME280;68459;50.836;19.138;2023-09-07T04:20:43;99546.13;;;11.67;71.70
74975;BME280;68459;50.836;19.138;2023-09-07T04:23:48;99541.94;;;11.64;71.27
74975;BME280;68459;50.836;19.138;2023-09-07T04:26:57;99541.97;;;11.58;72.45
74975;BME280;68459;50.836;19.138;2023-09-07T04:30:03;99541.13;;;11.57;71.73
74975;BME280;68459;50.836;19.138;2023-09-07T04:33:07;99546.94;;;11.61;71.84
74975;BME280;68459;50.836;19.138;2023-09-07T04:36:14;99547.78;;;11.68;71.58
74975;BME280;68459;50.836;19.138;2023-09-07T04:39:21;99548.22;;;11.78;71.63
74975;BME280;68459;50.836;19.138;2023-09-07T04:42:28;99561.09;;;11.89;71.83
74975;BME280;68459;50.836;19.138;2023-09-07T04:45:32;99549.88;;;11.92;71.57
74975;BME280;68459;50.836;19.138;2023-09-07T04:48:36;99548.41;;;11.96;71.12
74975;BME280;68459;50.836;19.138;2023-09-07T04:51:40;99549.41;;;12.02;71.15
74975;BME280;68459;50.836;19.138;2023-09-07T04:54:44;99554.84;;;12.08;71.60
74975;BME280;68459;50.836;19.138;2023-09-07T04:57:50;99555.63;;;12.16;71.89
74975;BME280;68459;50.836;19.138;2023-09-07T05:01:01;99556.84;;;12.26;72.69
74975;BME280;68459;50.836;19.138;2023-09-07T05:04:05;99566.78;;;12.39;71.43
74975;BME280;68459;50.836;19.138;2023-09-07T05:07:10;99564.28;;;12.51;71.04
74975;BME280;68459;50.836;19.138;2023-09-07T05:10:14;99565.69;;;12.60;70.79
74975;BME280;68459;50.836;19.138;2023-09-07T05:13:21;99574.19;;;12.70;70.91
74975;BME280;68459;50.836;19.138;2023-09-07T05:16:24;99576.88;;;12.76;71.36
74975;BME280;68459;50.836;19.138;2023-09-07T05:19:29;99570.59;;;12.82;70.59
74975;BME280;68459;50.836;19.138;2023-09-07T05:22:32;99574.13;;;12.90;70.53
74975;BME280;68459;50.836;19.138;2023-09-07T05:25:43;99580.31;;;12.97;71.09
74975;BME280;68459;50.836;19.138;2023-09-07T05:28:48;99573.22;;;13.02;71.27
74975;BME280;68459;50.836;19.138;2023-09-07T05:31:53;99580.63;;;13.13;70.78
74975;BME280;68459;50.836;19.138;2023-09-07T05:34:57;99577.47;;;13.23;71.01
74975;BME280;68459;50.836;19.138;2023-09-07T05:38:02;99584.91;;;13.34;70.73
74975;BME280;68459;50.836;19.138;2023-09-07T05:41:07;99581.13;;;13.42;70.68
74975;BME280;68459;50.836;19.138;2023-09-07T05:44:12;99588.31;;;13.54;70.80
74975;BME280;68459;50.836;19.138;2023-09-07T05:47:16;99583.22;;;13.65;70.47
74975;BME280;68459;50.836;19.138;2023-09-07T05:50:20;99585.22;;;13.76;70.82
74975;BME280;68459;50.836;19.138;2023-09-07T05:53:24;99591.16;;;13.91;70.56
74975;BME280;68459;50.836;19.138;2023-09-07T05:56:29;99586.44;;;14.05;70.47
74975;BME280;68459;50.836;19.138;2023-09-07T05:59:36;99593.38;;;14.19;70.36
74975;BME280;68459;50.836;19.138;2023-09-07T06:02:41;99593.88;;;14.34;70.14
74975;BME280;68459;50.836;19.138;2023-09-07T06:05:46;99598.34;;;14.47;70.33
74975;BME280;68459;50.836;19.138;2023-09-07T06:08:51;99603.63;;;14.60;70.25
74975;BME280;68459;50.836;19.138;2023-09-07T06:11:54;99599.72;;;14.74;70.29
74975;BME280;68459;50.836;19.138;2023-09-07T06:15:00;99605.34;;;14.91;70.29
74975;BME280;68459;50.836;19.138;2023-09-07T06:18:06;99599.66;;;15.11;69.69
74975;BME280;68459;50.836;19.138;2023-09-07T06:21:11;99603.16;;;15.29;69.28
74975;BME280;68459;50.836;19.138;2023-09-07T06:24:15;99602.03;;;15.49;69.40
74975;BME280;68459;50.836;19.138;2023-09-07T06:27:19;99601.75;;;15.68;69.21
74975;BME280;68459;50.836;19.138;2023-09-07T06:30:24;99606.25;;;15.86;69.08
74975;BME280;68459;50.836;19.138;2023-09-07T06:33:28;99612.09;;;16.01;68.78
74975;BME280;68459;50.836;19.138;2023-09-07T06:36:32;99612.22;;;16.18;68.38
74975;BME280;68459;50.836;19.138;2023-09-07T06:39:52;99620.28;;;16.36;68.74
74975;BME280;68459;50.836;19.138;2023-09-07T06:42:55;99612.44;;;16.52;67.94
74975;BME280;68459;50.836;19.138;2023-09-07T06:46:07;99617.66;;;16.65;68.76
74975;BME280;68459;50.836;19.138;2023-09-07T06:49:12;99625.09;;;16.81;67.85
74975;BME280;68459;50.836;19.138;2023-09-07T06:52:16;99626.25;;;16.97;67.07
74975;BME280;68459;50.836;19.138;2023-09-07T06:55:20;99626.31;;;17.14;67.36
74975;BME280;68459;50.836;19.138;2023-09-07T06:58:24;99625.53;;;17.30;66.79
74975;BME280;68459;50.836;19.138;2023-09-07T07:01:31;99634.00;;;17.45;66.34
74975;BME280;68459;50.836;19.138;2023-09-07T07:04:35;99639.16;;;17.58;66.14
74975;BME280;68459;50.836;19.138;2023-09-07T07:07:39;99635.91;;;17.73;65.67
74975;BME280;68459;50.836;19.138;2023-09-07T07:10:43;99634.19;;;17.84;65.31
74975;BME280;68459;50.836;19.138;2023-09-07T07:13:47;99626.16;;;17.94;65.21
74975;BME280;68459;50.836;19.138;2023-09-07T07:16:53;99630.13;;;18.03;65.01
74975;BME280;68459;50.836;19.138;2023-09-07T07:19:57;99628.97;;;18.15;64.92
74975;BME280;68459;50.836;19.138;2023-09-07T07:23:02;99633.50;;;18.27;64.83
74975;BME280;68459;50.836;19.138;2023-09-07T07:26:06;99637.50;;;18.36;64.39
74975;BME280;68459;50.836;19.138;2023-09-07T07:29:11;99635.72;;;18.46;64.23
74975;BME280;68459;50.836;19.138;2023-09-07T07:32:16;99641.34;;;18.57;63.93
74975;BME280;68459;50.836;19.138;2023-09-07T07:35:22;99633.31;;;18.67;63.63
74975;BME280;68459;50.836;19.138;2023-09-07T07:38:26;99639.47;;;18.79;63.40
74975;BME280;68459;50.836;19.138;2023-09-07T07:41:30;99639.06;;;18.87;63.24
74975;BME280;68459;50.836;19.138;2023-09-07T07:44:34;99640.84;;;18.98;63.13
74975;BME280;68459;50.836;19.138;2023-09-07T07:47:40;99639.88;;;19.09;62.89
74975;BME280;68459;50.836;19.138;2023-09-07T07:50:43;99634.78;;;19.18;62.64
74975;BME280;68459;50.836;19.138;2023-09-07T07:53:49;99649.94;;;19.26;62.43
74975;BME280;68459;50.836;19.138;2023-09-07T07:56:53;99651.69;;;19.37;62.22
74975;BME280;68459;50.836;19.138;2023-09-07T07:59:58;99653.22;;;19.49;61.98
74975;BME280;68459;50.836;19.138;2023-09-07T08:03:05;99641.81;;;19.57;61.88
74975;BME280;68459;50.836;19.138;2023-09-07T08:06:12;99653.97;;;19.67;61.41
74975;BME280;68459;50.836;19.138;2023-09-07T08:09:16;99655.97;;;19.76;61.30
74975;BME280;68459;50.836;19.138;2023-09-07T08:12:20;99648.94;;;19.85;61.19
74975;BME280;68459;50.836;19.138;2023-09-07T08:15:24;99650.66;;;19.91;60.86
74975;BME280;68459;50.836;19.138;2023-09-07T08:18:31;99646.91;;;20.03;60.22
74975;BME280;68459;50.836;19.138;2023-09-07T08:21:38;99648.06;;;20.12;60.38
74975;BME280;68459;50.836;19.138;2023-09-07T08:24:44;99648.69;;;20.19;60.05
74975;BME280;68459;50.836;19.138;2023-09-07T08:27:49;99645.19;;;20.28;59.91
74975;BME280;68459;50.836;19.138;2023-09-07T08:30:57;99646.94;;;20.40;59.49
74975;BME280;68459;50.836;19.138;2023-09-07T08:34:05;99648.94;;;20.49;59.57
74975;BME280;68459;50.836;19.138;2023-09-07T08:37:11;99648.19;;;20.59;59.16
74975;BME280;68459;50.836;19.138;2023-09-07T08:40:14;99651.50;;;20.66;59.26
74975;BME280;68459;50.836;19.138;2023-09-07T08:43:20;99646.91;;;20.77;59.28
74975;BME280;68459;50.836;19.138;2023-09-07T08:46:24;99648.06;;;20.86;58.55
74975;BME280;68459;50.836;19.138;2023-09-07T08:49:30;99641.50;;;20.92;58.64
74975;BME280;68459;50.836;19.138;2023-09-07T08:52:35;99645.13;;;21.03;58.20
74975;BME280;68459;50.836;19.138;2023-09-07T08:55:40;99650.91;;;21.11;57.85
74975;BME280;68459;50.836;19.138;2023-09-07T08:58:44;99649.88;;;21.22;57.51
74975;BME280;68459;50.836;19.138;2023-09-07T09:01:56;99655.41;;;21.32;57.98
74975;BME280;68459;50.836;19.138;2023-09-07T09:05:02;99659.84;;;21.44;57.42
74975;BME280;68459;50.836;19.138;2023-09-07T09:08:08;99656.03;;;21.55;57.32
74975;BME280;68459;50.836;19.138;2023-09-07T09:11:13;99656.31;;;21.63;56.97
74975;BME280;68459;50.836;19.138;2023-09-07T09:14:17;99652.19;;;21.71;56.81
74975;BME280;68459;50.836;19.138;2023-09-07T09:17:24;99652.81;;;21.83;56.76
74975;BME280;68459;50.836;19.138;2023-09-07T09:20:29;99654.44;;;21.89;56.15
74975;BME280;68459;50.836;19.138;2023-09-07T09:23:36;99652.81;;;21.93;55.87
74975;BME280;68459;50.836;19.138;2023-09-07T09:26:40;99653.38;;;22.00;55.90
74975;BME280;68459;50.836;19.138;2023-09-07T09:29:44;99656.13;;;22.11;55.85
74975;BME280;68459;50.836;19.138;2023-09-07T09:32:48;99653.41;;;22.21;55.61
74975;BME280;68459;50.836;19.138;2023-09-07T09:35:54;99654.47;;;22.30;55.13
74975;BME280;68459;50.836;19.138;2023-09-07T09:38:59;99657.78;;;22.37;55.12
74975;BME280;68459;50.836;19.138;2023-09-07T09:42:03;99646.22;;;22.45;54.72
74975;BME280;68459;50.836;19.138;2023-09-07T09:45:08;99646.19;;;22.55;54.75
74975;BME280;68459;50.836;19.138;2023-09-07T09:48:13;99642.88;;;22.68;54.51
74975;BME280;68459;50.836;19.138;2023-09-07T09:51:19;99642.88;;;22.79;53.95
74975;BME280;68459;50.836;19.138;2023-09-07T09:54:23;99643.41;;;22.86;53.60
74975;BME280;68459;50.836;19.138;2023-09-07T09:57:29;99644.75;;;22.98;53.61
74975;BME280;68459;50.836;19.138;2023-09-07T10:00:33;99648.28;;;23.09;53.48
74975;BME280;68459;50.836;19.138;2023-09-07T10:03:42;99647.13;;;23.20;53.21
74975;BME280;68459;50.836;19.138;2023-09-07T10:06:55;99643.75;;;23.33;52.70
74975;BME280;68459;50.836;19.138;2023-09-07T10:10:03;99647.81;;;23.46;52.44
74975;BME280;68459;50.836;19.138;2023-09-07T10:13:07;99650.25;;;23.58;52.31
74975;BME280;68459;50.836;19.138;2023-09-07T10:16:11;99654.63;;;23.69;51.93
74975;BME280;68459;50.836;19.138;2023-09-07T10:19:16;99652.34;;;23.81;51.84
74975;BME280;68459;50.836;19.138;2023-09-07T10:22:25;99651.97;;;23.93;51.73
74975;BME280;68459;50.836;19.138;2023-09-07T10:25:36;99651.31;;;24.06;51.55
74975;BME280;68459;50.836;19.138;2023-09-07T10:28:40;99643.22;;;24.20;51.41
74975;BME280;68459;50.836;19.138;2023-09-07T10:31:50;99645.94;;;24.25;49.63
74975;BME280;68459;50.836;19.138;2023-09-07T10:34:59;99646.16;;;24.33;50.69
74975;BME280;68459;50.836;19.138;2023-09-07T10:38:04;99645.22;;;24.43;50.58
74975;BME280;68459;50.836;19.138;2023-09-07T10:41:09;99644.25;;;24.58;50.45
74975;BME280;68459;50.836;19.138;2023-09-07T10:44:12;99642.47;;;24.72;50.09
74975;BME280;68459;50.836;19.138;2023-09-07T10:47:16;99629.91;;;24.84;50.24
74975;BME280;68459;50.836;19.138;2023-09-07T10:50:20;99638.84;;;25.00;49.55
74975;BME280;68459;50.836;19.138;2023-09-07T10:53:26;99632.63;;;25.13;49.78
74975;BME280;68459;50.836;19.138;2023-09-07T10:56:32;99630.53;;;25.24;49.52
74975;BME280;68459;50.836;19.138;2023-09-07T10:59:35;99627.78;;;25.24;49.34
74975;BME280;68459;50.836;19.138;2023-09-07T11:02:39;99635.03;;;25.39;49.49
74975;BME280;68459;50.836;19.138;2023-09-07T11:05:45;99631.16;;;25.58;48.68
74975;BME280;68459;50.836;19.138;2023-09-07T11:08:50;99622.97;;;25.72;48.49
74975;BME280;68459;50.836;19.138;2023-09-07T11:11:55;99627.53;;;25.82;48.35
74975;BME280;68459;50.836;19.138;2023-09-07T11:14:58;99626.25;;;25.93;48.22
74975;BME280;68459;50.836;19.138;2023-09-07T11:18:06;99612.66;;;26.10;48.39
74975;BME280;68459;50.836;19.138;2023-09-07T11:21:11;99614.75;;;26.18;47.94
74975;BME280;68459;50.836;19.138;2023-09-07T11:24:16;99611.78;;;26.34;47.67
74975;BME280;68459;50.836;19.138;2023-09-07T11:27:21;99610.53;;;26.40;47.51
74975;BME280;68459;50.836;19.138;2023-09-07T11:30:25;99614.75;;;26.51;47.26
74975;BME280;68459;50.836;19.138;2023-09-07T11:33:32;99615.19;;;26.72;47.11
74975;BME280;68459;50.836;19.138;2023-09-07T11:36:36;99623.34;;;26.95;46.89
74975;BME280;68459;50.836;19.138;2023-09-07T11:39:42;99615.09;;;27.18;46.16
74975;BME280;68459;50.836;19.138;2023-09-07T11:42:46;99617.44;;;27.38;46.04
74975;BME280;68459;50.836;19.138;2023-09-07T11:45:50;99613.09;;;27.59;45.57
74975;BME280;68459;50.836;19.138;2023-09-07T11:48:54;99609.72;;;27.62;45.12
74975;BME280;68459;50.836;19.138;2023-09-07T11:51:58;99606.63;;;27.64;44.93
74975;BME280;68459;50.836;19.138;2023-09-07T11:55:04;99611.47;;;27.58;44.41
74975;BME280;68459;50.836;19.138;2023-09-07T11:58:08;99607.50;;;27.73;44.61
74975;BME280;68459;50.836;19.138;2023-09-07T12:01:12;99618.63;;;27.95;44.56
74975;BME280;68459;50.836;19.138;2023-09-07T12:04:19;99615.28;;;28.07;43.81
74975;BME280;68459;50.836;19.138;2023-09-07T12:07:23;99610.28;;;28.18;43.75
74975;BME280;68459;50.836;19.138;2023-09-07T12:10:28;99617.16;;;28.43;43.67
74975;BME280;68459;50.836;19.138;2023-09-07T12:13:33;99616.97;;;28.70;43.42
74975;BME280;68459;50.836;19.138;2023-09-07T12:16:37;99610.72;;;28.87;42.80
74975;BME280;68459;50.836;19.138;2023-09-07T12:19:41;99615.28;;;28.83;42.05
74975;BME280;68459;50.836;19.138;2023-09-07T12:22:48;99610.56;;;28.92;42.06
74975;BME280;68459;50.836;19.138;2023-09-07T12:25:53;99605.59;;;29.37;41.27
74975;BME280;68459;50.836;19.138;2023-09-07T12:28:57;99609.59;;;29.88;40.85
74975;BME280;68459;50.836;19.138;2023-09-07T12:32:01;99600.66;;;31.01;39.68
74975;BME280;68459;50.836;19.138;2023-09-07T12:35:06;99608.78;;;34.14;35.73
74975;BME280;68459;50.836;19.138;2023-09-07T12:38:11;99606.53;;;37.29;31.46
74975;BME280;68459;50.836;19.138;2023-09-07T12:41:20;99611.91;;;39.64;28.79
74975;BME280;68459;50.836;19.138;2023-09-07T12:44:25;99605.38;;;41.56;26.69
74975;BME280;68459;50.836;19.138;2023-09-07T12:47:28;99609.38;;;43.12;25.23
74975;BME280;68459;50.836;19.138;2023-09-07T12:50:32;99593.28;;;44.65;23.32
74975;BME280;68459;50.836;19.138;2023-09-07T12:53:36;99599.31;;;46.03;22.19
74975;BME280;68459;50.836;19.138;2023-09-07T12:56:41;99595.59;;;46.59;21.44
74975;BME280;68459;50.836;19.138;2023-09-07T12:59:45;99587.78;;;47.69;20.82
74975;BME280;68459;50.836;19.138;2023-09-07T13:02:49;99594.78;;;48.10;19.67
74975;BME280;68459;50.836;19.138;2023-09-07T13:05:52;99584.28;;;48.96;19.60
74975;BME280;68459;50.836;19.138;2023-09-07T13:08:57;99587.78;;;49.69;18.44
74975;BME280;68459;50.836;19.138;2023-09-07T13:12:02;99587.38;;;50.63;17.94
74975;BME280;68459;50.836;19.138;2023-09-07T13:15:07;99578.75;;;51.12;17.19
74975;BME280;68459;50.836;19.138;2023-09-07T13:18:12;99571.72;;;51.50;16.94
74975;BME280;68459;50.836;19.138;2023-09-07T13:21:16;99578.59;;;51.80;16.61
74975;BME280;68459;50.836;19.138;2023-09-07T13:24:20;99574.34;;;52.08;16.41
74975;BME280;68459;50.836;19.138;2023-09-07T13:27:26;99575.13;;;52.18;15.45
74975;BME280;68459;50.836;19.138;2023-09-07T13:30:30;99567.91;;;51.35;15.91
74975;BME280;68459;50.836;19.138;2023-09-07T13:33:34;99562.03;;;50.80;16.12
74975;BME280;68459;50.836;19.138;2023-09-07T13:36:38;99563.69;;;50.50;16.50
74975;BME280;68459;50.836;19.138;2023-09-07T13:39:42;99560.44;;;50.79;16.02
74975;BME280;68459;50.836;19.138;2023-09-07T13:42:48;99553.78;;;51.18;15.74
74975;BME280;68459;50.836;19.138;2023-09-07T13:45:52;99548.69;;;51.77;15.29
74975;BME280;68459;50.836;19.138;2023-09-07T13:48:56;99541.34;;;51.03;15.36
74975;BME280;68459;50.836;19.138;2023-09-07T13:52:00;99549.00;;;51.06;15.37
74975;BME280;68459;50.836;19.138;2023-09-07T13:55:04;99549.66;;;51.19;14.80
74975;BME280;68459;50.836;19.138;2023-09-07T13:58:10;99535.91;;;51.14;15.31
74975;BME280;68459;50.836;19.138;2023-09-07T14:01:13;99538.94;;;51.02;15.05
74975;BME280;68459;50.836;19.138;2023-09-07T14:04:17;99536.72;;;51.33;14.96
74975;BME280;68459;50.836;19.138;2023-09-07T14:07:21;99535.63;;;51.40;14.73
74975;BME280;68459;50.836;19.138;2023-09-07T14:10:28;99532.72;;;51.30;14.80
74975;BME280;68459;50.836;19.138;2023-09-07T14:13:32;99521.06;;;51.07;14.78
74975;BME280;68459;50.836;19.138;2023-09-07T14:16:38;99523.59;;;50.37;15.26
74975;BME280;68459;50.836;19.138;2023-09-07T14:19:42;99524.19;;;50.23;15.04
74975;BME280;68459;50.836;19.138;2023-09-07T14:22:47;99527.59;;;50.00;14.99
74975;BME280;68459;50.836;19.138;2023-09-07T14:25:51;99517.19;;;49.71;15.21
74975;BME280;68459;50.836;19.138;2023-09-07T14:28:56;99520.91;;;49.81;15.65
74975;BME280;68459;50.836;19.138;2023-09-07T14:32:00;99511.09;;;49.60;15.08
74975;BME280;68459;50.836;19.138;2023-09-07T14:35:05;99515.03;;;48.97;15.58
74975;BME280;68459;50.836;19.138;2023-09-07T14:38:11;99505.25;;;48.60;15.91
74975;BME280;68459;50.836;19.138;2023-09-07T14:41:15;99499.31;;;48.54;16.12
74975;BME280;68459;50.836;19.138;2023-09-07T14:44:23;99497.16;;;48.46;16.39
74975;BME280;68459;50.836;19.138;2023-09-07T14:47:28;99498.59;;;47.74;16.52
74975;BME280;68459;50.836;19.138;2023-09-07T14:50:31;99506.91;;;46.82;16.97
74975;BME280;68459;50.836;19.138;2023-09-07T14:53:35;99495.81;;;46.35;17.29
74975;BME280;68459;50.836;19.138;2023-09-07T14:56:40;99497.28;;;46.27;17.41
74975;BME280;68459;50.836;19.138;2023-09-07T14:59:45;99498.03;;;46.11;17.48
74975;BME280;68459;50.836;19.138;2023-09-07T15:02:49;99509.19;;;45.86;17.87
74975;BME280;68459;50.836;19.138;2023-09-07T15:05:53;99485.63;;;45.66;17.98
74975;BME280;68459;50.836;19.138;2023-09-07T15:08:57;99493.34;;;45.45;17.94
74975;BME280;68459;50.836;19.138;2023-09-07T15:12:01;99484.66;;;45.33;18.44
74975;BME280;68459;50.836;19.138;2023-09-07T15:15:08;99480.59;;;45.14;17.88
74975;BME280;68459;50.836;19.138;2023-09-07T15:18:12;99471.50;;;44.76;18.31
74975;BME280;68459;50.836;19.138;2023-09-07T15:21:16;99470.16;;;44.61;18.86
74975;BME280;68459;50.836;19.138;2023-09-07T15:24:20;99473.44;;;44.32;19.14
74975;BME280;68459;50.836;19.138;2023-09-07T15:27:24;99475.38;;;43.85;18.93
74975;BME280;68459;50.836;19.138;2023-09-07T15:30:29;99468.91;;;43.17;19.45
74975;BME280;68459;50.836;19.138;2023-09-07T15:33:33;99471.94;;;41.19;21.18
74975;BME280;68459;50.836;19.138;2023-09-07T15:36:37;99472.81;;;40.70;21.82
74975;BME280;68459;50.836;19.138;2023-09-07T15:39:41;99466.72;;;40.89;21.58
74975;BME280;68459;50.836;19.138;2023-09-07T15:42:47;99467.13;;;40.91;21.86
74975;BME280;68459;50.836;19.138;2023-09-07T15:45:52;99459.84;;;41.01;21.15
74975;BME280;68459;50.836;19.138;2023-09-07T15:48:57;99460.69;;;40.76;21.62
74975;BME280;68459;50.836;19.138;2023-09-07T15:52:00;99464.34;;;40.55;21.78
74975;BME280;68459;50.836;19.138;2023-09-07T15:55:05;99465.13;;;40.03;22.52
74975;BME280;68459;50.836;19.138;2023-09-07T15:58:09;99448.44;;;39.59;22.89
74975;BME280;68459;50.836;19.138;2023-09-07T16:01:14;99457.88;;;39.08;23.45
74975;BME280;68459;50.836;19.138;2023-09-07T16:04:18;99458.34;;;38.55;23.66
74975;BME280;68459;50.836;19.138;2023-09-07T16:07:22;99453.16;;;38.17;24.07